Time;durP1;ratioP1;P1;durP2;ratioP2;P2;SDS_P1;SDS_P2;PMS_P1;PMS_P2;Temp;Humidity;BMP_temperature;BMP_pressure;BME280_temperature;BME280_humidity;BME280_pressure;Samples;Min_cycle;Max_cycle;Signal;HPM_P1;HPM_P2
2022/08/21 00:01:56;;;;;;;4.47;1.67;;;;;;;27.08;37.50;101611.03;5052381;28;20095;-49
2022/08/21 00:04:24;;;;;;;4.32;1.70;;;;;;;27.08;37.75;101613.66;5052375;28;20033;-49
2022/08/21 00:06:53;;;;;;;5.32;1.40;;;;;;;27.05;37.69;101600.44;5052310;28;20545;-49
2022/08/21 00:09:22;;;;;;;4.03;1.40;;;;;;;27.17;37.41;101594.44;5052538;28;20037;-49
2022/08/21 00:11:51;;;;;;;8.38;1.55;;;;;;;27.13;37.41;101593.53;5052128;28;20047;-50
2022/08/21 00:14:20;;;;;;;2.13;1.17;;;;;;;27.05;37.53;101586.41;5052218;28;20040;-53
2022/08/21 00:16:48;;;;;;;4.10;1.50;;;;;;;27.08;37.08;101589.94;5051689;28;20395;-49
2022/08/21 00:19:17;;;;;;;5.93;1.73;;;;;;;26.98;37.58;101583.72;5052300;28;20103;-51
2022/08/21 00:21:45;;;;;;;6.38;1.70;;;;;;;26.98;37.58;101578.44;5052037;28;20029;-49
2022/08/21 00:24:14;;;;;;;3.78;1.52;;;;;;;26.97;37.67;101584.56;5034135;28;20047;-49
2022/08/21 00:26:43;;;;;;;5.38;1.70;;;;;;;27.01;37.85;101595.13;5052139;28;20025;-48
2022/08/21 00:29:11;;;;;;;4.30;1.88;;;;;;;27.01;37.60;101580.22;5034116;28;20025;-48
2022/08/21 00:31:40;;;;;;;6.57;1.50;;;;;;;27.01;37.75;101584.63;5051907;28;20037;-48
2022/08/21 00:34:10;;;;;;;2.88;1.27;;;;;;;26.91;37.74;101568.69;5051930;28;20653;-49
2022/08/21 00:36:38;;;;;;;4.13;1.30;;;;;;;26.97;37.60;101579.31;5052001;28;20056;-50
2022/08/21 00:39:08;;;;;;;5.20;1.75;;;;;;;27.06;37.49;101575.88;5051939;28;20025;-51
2022/08/21 00:41:38;;;;;;;8.18;1.75;;;;;;;27.01;37.57;101567.03;5052368;28;20074;-50
2022/08/21 00:44:09;;;;;;;4.82;1.60;;;;;;;27.00;37.52;101575.81;5051729;28;20091;-46
2022/08/21 00:46:38;;;;;;;5.47;1.90;;;;;;;26.97;37.57;101565.28;5051460;28;20025;-50
2022/08/21 00:49:07;;;;;;;4.75;1.73;;;;;;;26.97;37.97;101565.28;5052063;28;20388;-49
2022/08/21 00:51:50;;;;;;;7.78;1.70;;;;;;;26.93;37.75;101561.69;5051750;28;20120;-48
2022/08/21 00:54:20;;;;;;;5.60;1.65;;;;;;;26.97;37.73;101560.88;5033889;28;20070;-52
2022/08/21 00:56:51;;;;;;;4.22;1.67;;;;;;;26.97;37.57;101565.28;5052918;28;20108;-49
2022/08/21 00:59:21;;;;;;;5.43;1.67;;;;;;;26.93;37.73;101563.47;5055347;28;20036;-50
2022/08/21 01:01:50;;;;;;;5.75;1.60;;;;;;;26.87;37.79;101553.75;5037948;28;20037;-49
2022/08/21 01:04:19;;;;;;;6.32;1.83;;;;;;;26.90;37.74;101559.03;5055526;28;20028;-51
2022/08/21 01:06:47;;;;;;;6.88;1.52;;;;;;;26.88;37.65;101565.16;5055567;28;20029;-49
2022/08/21 01:09:16;;;;;;;4.97;2.40;;;;;;;26.91;37.94;101566.06;5055181;28;20025;-46
2022/08/21 01:11:45;;;;;;;6.05;1.77;;;;;;;26.89;37.81;101557.28;5055451;28;20021;-49
2022/08/21 01:14:14;;;;;;;4.78;2.25;;;;;;;26.89;38.31;101565.16;5037563;28;20059;-46
2022/08/21 01:16:45;;;;;;;6.75;1.73;;;;;;;26.83;37.94;101560.72;5037578;28;20475;-47
2022/08/21 01:19:14;;;;;;;3.47;1.25;;;;;;;26.84;37.81;101564.25;5037761;28;20025;-46
2022/08/21 01:21:43;;;;;;;5.90;2.13;;;;;;;26.82;37.99;101566.00;5054984;28;20558;-49
2022/08/21 01:24:12;;;;;;;6.60;1.85;;;;;;;26.88;38.02;101565.16;5037251;28;20116;-46
2022/08/21 01:26:41;;;;;;;7.07;1.95;;;;;;;26.84;38.25;101566.91;5054997;28;20025;-47
2022/08/21 01:29:13;;;;;;;7.03;1.63;;;;;;;26.79;38.05;101568.56;5055010;28;20503;-50
2022/08/21 01:31:42;;;;;;;4.65;1.50;;;;;;;26.83;38.08;101568.63;5054918;28;20079;-49
2022/08/21 01:34:13;;;;;;;3.33;1.90;;;;;;;26.86;37.95;101564.25;5055001;28;20033;-49
2022/08/21 01:36:41;;;;;;;7.40;2.10;;;;;;;26.82;38.09;101551.06;5054561;28;20116;-50
2022/08/21 01:39:10;;;;;;;8.75;2.70;;;;;;;26.77;38.19;101543.97;5054766;28;20454;-49
2022/08/21 01:41:39;;;;;;;4.50;1.85;;;;;;;26.78;38.05;101548.34;5054325;28;20025;-51
2022/08/21 01:44:07;;;;;;;4.90;1.63;;;;;;;26.79;38.34;101552.75;5054329;28;20391;-47
2022/08/21 01:46:37;;;;;;;5.55;1.60;;;;;;;26.76;38.21;101553.63;5054745;28;20120;-48
2022/08/21 01:49:05;;;;;;;5.18;1.67;;;;;;;26.83;38.28;101554.59;5054396;28;20025;-49
2022/08/21 01:51:34;;;;;;;6.25;2.22;;;;;;;26.82;38.24;101556.31;5054765;28;20697;-49
2022/08/21 01:54:03;;;;;;;6.07;1.83;;;;;;;26.79;38.00;101552.75;5054117;28;20025;-50
2022/08/21 01:56:38;;;;;;;5.00;1.58;;;;;;;26.71;38.47;101544.78;5054366;28;20044;-50
2022/08/21 01:59:07;;;;;;;6.53;1.92;;;;;;;26.79;38.34;101550.13;5036989;28;20125;-48
2022/08/21 02:01:36;;;;;;;4.03;1.35;;;;;;;26.78;38.32;101546.63;5054329;28;20033;-51
2022/08/21 02:04:04;;;;;;;7.75;1.52;;;;;;;26.75;38.10;101546.59;5054177;28;20177;-51
2022/08/21 02:06:33;;;;;;;4.88;1.90;;;;;;;26.70;38.34;101535.13;5053923;28;20075;-50
2022/08/21 02:09:03;;;;;;;4.80;1.58;;;;;;;26.75;38.25;101524.63;5053515;28;20499;-48
2022/08/21 02:11:32;;;;;;;5.80;1.90;;;;;;;26.67;38.35;101519.28;5036479;28;20110;-50
2022/08/21 02:14:00;;;;;;;6.88;2.00;;;;;;;26.82;38.19;101539.66;5054029;28;20403;-49
2022/08/21 02:16:29;;;;;;;7.85;2.00;;;;;;;26.76;38.15;101540.47;5036566;28;20032;-50
2022/08/21 02:18:58;;;;;;;6.15;2.17;;;;;;;26.75;38.43;101537.78;5054121;28;20028;-48
2022/08/21 02:21:26;;;;;;;5.70;1.85;;;;;;;26.75;38.32;101527.25;5054062;28;20159;-49
2022/08/21 02:23:55;;;;;;;6.65;2.05;;;;;;;26.78;38.08;101527.31;5054062;28;20143;-50
2022/08/21 02:26:24;;;;;;;5.60;2.03;;;;;;;26.77;38.19;101522.91;5053649;28;20108;-51
2022/08/21 02:28:52;;;;;;;3.80;1.55;;;;;;;26.76;38.41;101522.03;5052353;28;20056;-47
2022/08/21 02:31:21;;;;;;;6.35;1.77;;;;;;;26.79;38.47;101516.84;5053811;28;20025;-46
2022/08/21 02:33:49;;;;;;;6.05;1.70;;;;;;;26.75;38.47;101519.38;5053514;28;20025;-50
2022/08/21 02:36:18;;;;;;;5.88;1.95;;;;;;;26.67;38.34;101509.66;5053652;28;20430;-48
2022/08/21 02:38:46;;;;;;;5.72;1.90;;;;;;;26.69;38.49;101523.72;5053493;28;20083;-50
2022/08/21 02:41:18;;;;;;;5.75;1.70;;;;;;;26.66;38.46;101518.41;5053378;28;20044;-50
2022/08/21 02:43:47;;;;;;;4.85;1.85;;;;;;;26.65;38.54;101506.13;5035610;28;20488;-51
2022/08/21 02:46:19;;;;;;;6.95;2.17;;;;;;;26.71;38.59;101510.56;5035848;28;20029;-49
2022/08/21 02:48:47;;;;;;;8.60;2.20;;;;;;;26.66;38.78;101501.72;5053312;28;20468;-53
2022/08/21 02:51:18;;;;;;;10.90;2.25;;;;;;;26.67;38.77;101514.03;5053157;28;20033;-49
2022/08/21 02:53:49;;;;;;;7.88;2.00;;;;;;;26.69;38.60;101507.03;5053665;28;20032;-47
2022/08/21 02:56:20;;;;;;;5.20;1.67;;;;;;;26.67;38.62;101504.41;5052968;28;20072;-50
2022/08/21 02:58:51;;;;;;;4.95;2.17;;;;;;;26.72;38.54;101496.53;5035657;28;20390;-48
2022/08/21 03:01:20;;;;;;;5.85;1.65;;;;;;;26.69;38.58;101494.78;5035906;28;20106;-48
2022/08/21 03:03:49;;;;;;;5.82;2.28;;;;;;;26.59;38.94;101494.66;5053015;28;20416;-50
2022/08/21 03:06:21;;;;;;;9.63;2.17;;;;;;;26.72;38.42;101496.53;5052747;28;20035;-50
2022/08/21 03:08:50;;;;;;;8.48;2.05;;;;;;;26.68;38.70;101482.47;5035141;28;20071;-48
2022/08/21 03:11:20;;;;;;;5.97;2.10;;;;;;;26.64;38.60;101470.16;5052892;28;20025;-48
2022/08/21 03:13:48;;;;;;;6.05;1.92;;;;;;;26.57;39.07;101481.47;5052871;28;20032;-50
2022/08/21 03:16:18;;;;;;;9.15;2.53;;;;;;;26.59;38.93;101485.00;5052888;28;20036;-51
2022/08/21 03:18:47;;;;;;;8.27;2.53;;;;;;;26.61;39.06;101471.88;5052969;28;20150;-51
2022/08/21 03:21:15;;;;;;;7.45;1.90;;;;;;;26.58;38.91;101475.34;5052581;28;20029;-50
2022/08/21 03:23:44;;;;;;;7.35;1.95;;;;;;;26.63;38.66;101472.78;5052684;28;20025;-51
2022/08/21 03:26:13;;;;;;;6.25;2.10;;;;;;;26.59;38.77;101474.47;5052707;28;20025;-49
2022/08/21 03:28:41;;;;;;;9.95;2.38;;;;;;;26.54;38.64;101486.72;5052482;28;20476;-49
2022/08/21 03:31:10;;;;;;;5.95;1.80;;;;;;;26.52;38.76;101481.44;5052275;28;20416;-50
2022/08/21 03:33:38;;;;;;;4.97;1.85;;;;;;;26.48;39.15;101487.53;5052830;28;20040;-49
2022/08/21 03:36:09;;;;;;;5.18;1.63;;;;;;;26.50;38.82;101490.19;5052582;28;20021;-49
2022/08/21 03:38:38;;;;;;;7.65;1.90;;;;;;;26.53;38.75;101483.19;5052273;28;20069;-48
2022/08/21 03:41:08;;;;;;;4.70;1.65;;;;;;;26.61;38.87;101483.28;5034809;28;20021;-49
2022/08/21 03:43:37;;;;;;;6.72;1.90;;;;;;;26.62;38.53;101485.03;5052673;28;20040;-48
2022/08/21 03:46:06;;;;;;;6.60;1.85;;;;;;;26.59;38.79;101478.88;5052326;28;20029;-49
2022/08/21 03:48:36;;;;;;;6.90;2.13;;;;;;;26.60;38.64;101478.88;5051988;28;20112;-48
2022/08/21 03:51:04;;;;;;;8.40;2.30;;;;;;;26.57;38.76;101470.94;5052442;28;20029;-53
2022/08/21 03:53:33;;;;;;;5.30;1.80;;;;;;;26.57;38.90;101456.91;5052102;28;20028;-49
2022/08/21 03:56:02;;;;;;;5.28;2.00;;;;;;;26.60;38.65;101459.59;5052384;28;20393;-48
2022/08/21 03:58:30;;;;;;;9.68;2.30;;;;;;;26.58;38.75;101462.19;5052560;28;20029;-49
2022/08/21 04:01:00;;;;;;;8.15;2.63;;;;;;;26.59;38.78;101458.69;5052193;28;20057;-48
2022/08/21 04:03:30;;;;;;;8.00;2.22;;;;;;;26.53;39.00;101453.38;5052159;28;20384;-48
2022/08/21 04:05:58;;;;;;;4.97;2.08;;;;;;;26.55;38.61;101451.66;5052220;28;20029;-48
2022/08/21 04:08:27;;;;;;;7.53;1.83;;;;;;;26.56;38.75;101458.66;5051822;28;20365;-48
2022/08/21 04:10:57;;;;;;;4.97;1.70;;;;;;;26.62;38.87;101460.50;5052224;28;20398;-48
2022/08/21 04:13:27;;;;;;;4.07;1.67;;;;;;;26.61;38.64;101456.97;5052421;28;20025;-50
2022/08/21 04:15:57;;;;;;;7.60;2.00;;;;;;;26.58;38.79;101449.03;5052447;28;20025;-48
2022/08/21 04:18:26;;;;;;;8.25;2.38;;;;;;;26.57;38.60;101456.91;5052357;28;20123;-49
2022/08/21 04:20:55;;;;;;;4.75;1.75;;;;;;;26.51;38.87;101439.34;5052237;28;20033;-48
2022/08/21 04:23:24;;;;;;;5.55;2.00;;;;;;;26.55;38.71;101425.34;5018106;28;20044;-53
2022/08/21 04:25:53;;;;;;;6.13;2.28;;;;;;;26.60;38.84;101433.28;5052056;28;20074;-54
2022/08/21 04:28:22;;;;;;;4.90;1.95;;;;;;;26.57;38.85;101426.22;5052252;28;20029;-52
2022/08/21 04:30:51;;;;;;;4.90;1.85;;;;;;;26.59;38.93;101431.50;5052096;28;20028;-52
2022/08/21 04:33:20;;;;;;;6.20;2.38;;;;;;;26.51;38.99;101429.69;5037218;28;20105;-53
2022/08/21 04:35:50;;;;;;;8.05;2.40;;;;;;;26.44;39.09;101427.88;5055777;28;20044;-51
2022/08/21 04:38:18;;;;;;;7.05;2.08;;;;;;;26.45;39.17;101434.91;5055915;28;20383;-53
2022/08/21 04:40:47;;;;;;;6.68;2.15;;;;;;;26.45;39.20;101439.25;5056072;28;20458;-53
2022/08/21 04:43:16;;;;;;;5.85;2.22;;;;;;;26.46;38.96;101446.28;5055795;28;20033;-51
2022/08/21 04:45:47;;;;;;;7.20;2.05;;;;;;;26.45;39.24;101447.16;5055529;28;20028;-53
2022/08/21 04:48:18;;;;;;;6.40;1.80;;;;;;;26.51;39.03;101445.47;5055228;28;20033;-52
2022/08/21 04:50:59;;;;;;;8.45;2.60;;;;;;;26.51;39.03;101456.00;5055436;28;20711;-51
2022/08/21 04:53:35;;;;;;;6.97;1.75;;;;;;;26.50;38.86;101451.59;5038051;28;20055;-49
2022/08/21 04:56:08;;;;;;;4.78;1.83;;;;;;;26.47;39.19;101469.09;5055253;28;20056;-53
2022/08/21 04:58:36;;;;;;;14.80;2.63;;;;;;;26.56;38.80;101465.69;5055775;28;20056;-51
2022/08/21 05:01:07;;;;;;;6.18;1.85;;;;;;;26.57;38.80;101473.56;5055530;28;20472;-49
2022/08/21 05:03:36;;;;;;;7.28;2.00;;;;;;;26.62;38.66;101465.75;5037671;28;20507;-52
2022/08/21 05:06:06;;;;;;;5.78;1.70;;;;;;;26.58;38.67;101471.84;5055311;28;20029;-53
2022/08/21 05:08:35;;;;;;;6.15;1.95;;;;;;;26.52;38.77;101467.41;5055247;28;20037;-48
2022/08/21 05:11:04;;;;;;;6.07;1.92;;;;;;;26.52;39.16;101470.03;5055334;28;20021;-49
2022/08/21 05:13:33;;;;;;;6.45;2.03;;;;;;;26.48;38.83;101462.97;5055365;28;20037;-52
2022/08/21 05:16:02;;;;;;;6.15;2.08;;;;;;;26.53;38.95;101467.41;5055191;28;20539;-53
2022/08/21 05:18:30;;;;;;;7.95;1.90;;;;;;;26.51;39.12;101468.28;5054989;28;20506;-52
2022/08/21 05:20:59;;;;;;;6.28;1.77;;;;;;;26.51;38.86;101470.91;5055248;28;20025;-51
2022/08/21 05:23:27;;;;;;;7.70;2.10;;;;;;;26.53;38.97;101474.44;5054976;28;20025;-49
2022/08/21 05:25:56;;;;;;;6.60;2.13;;;;;;;26.52;39.01;101468.28;5054844;28;20034;-49
2022/08/21 05:28:25;;;;;;;7.25;2.28;;;;;;;26.53;38.85;101464.78;5054547;28;20094;-49
2022/08/21 05:30:53;;;;;;;6.22;2.10;;;;;;;26.47;39.04;101454.22;5054871;28;20494;-49
2022/08/21 05:33:22;;;;;;;5.13;1.70;;;;;;;26.47;38.83;101448.97;5054984;28;20106;-50
2022/08/21 05:35:55;;;;;;;7.22;2.17;;;;;;;26.50;39.07;101464.75;5054793;28;20369;-49
2022/08/21 05:38:25;;;;;;;4.53;1.85;;;;;;;26.47;39.03;101456.84;5054965;28;20383;-48
2022/08/21 05:40:54;;;;;;;8.52;2.40;;;;;;;26.48;39.09;101468.25;5054833;28;20033;-51
2022/08/21 05:43:22;;;;;;;11.45;2.58;;;;;;;26.48;38.87;101461.22;5054184;28;20025;-50
2022/08/21 05:45:51;;;;;;;8.75;2.28;;;;;;;26.41;39.16;101459.41;5054472;28;20094;-48
2022/08/21 05:48:25;;;;;;;7.00;2.03;;;;;;;26.42;39.11;101481.31;5054716;28;20107;-49
2022/08/21 05:50:54;;;;;;;6.22;1.98;;;;;;;26.54;38.74;101465.69;5054545;28;20021;-47
2022/08/21 05:53:23;;;;;;;6.15;2.13;;;;;;;26.47;39.18;101480.53;5054292;28;20037;-48
2022/08/21 05:55:53;;;;;;;6.25;2.30;;;;;;;26.45;38.85;101479.63;5020056;28;20052;-49
2022/08/21 05:58:22;;;;;;;6.78;1.95;;;;;;;26.44;38.94;101488.38;5054233;28;20029;-50
2022/08/21 06:00:52;;;;;;;7.00;2.35;;;;;;;26.43;39.13;101477.81;5054493;28;20090;-49
2022/08/21 06:03:24;;;;;;;9.02;2.10;;;;;;;26.42;39.21;101468.16;5054523;28;20554;-47
2022/08/21 06:05:53;;;;;;;9.07;2.53;;;;;;;26.40;39.25;101465.53;5036632;28;20063;-48
2022/08/21 06:08:22;;;;;;;6.45;1.83;;;;;;;26.36;39.33;101455.81;5053769;28;20060;-50
2022/08/21 06:10:52;;;;;;;6.20;2.30;;;;;;;26.34;39.24;101449.66;5054096;28;20025;-50
2022/08/21 06:13:21;;;;;;;6.00;1.60;;;;;;;26.30;39.51;101456.66;5054487;28;20032;-49
2022/08/21 06:15:50;;;;;;;7.93;2.47;;;;;;;26.29;39.42;101459.28;5053974;28;20036;-49
2022/08/21 06:18:19;;;;;;;9.32;2.42;;;;;;;26.23;39.64;101454.81;5054168;28;20049;-48
2022/08/21 06:20:48;;;;;;;9.70;2.13;;;;;;;26.31;39.34;101460.19;5053883;28;20036;-48
2022/08/21 06:23:16;;;;;;;11.40;3.10;;;;;;;26.21;39.50;101448.66;5053881;28;20358;-48
2022/08/21 06:25:46;;;;;;;7.07;2.30;;;;;;;26.24;39.64;101459.19;5053801;28;20043;-48
2022/08/21 06:28:14;;;;;;;9.95;2.47;;;;;;;26.17;39.82;101455.63;5053930;28;20039;-49
2022/08/21 06:30:43;;;;;;;6.10;2.50;;;;;;;26.24;39.63;101462.72;5053800;28;20155;-50
2022/08/21 06:33:11;;;;;;;7.28;2.42;;;;;;;26.28;39.63;101468.91;5053373;28;20029;-50
2022/08/21 06:35:40;;;;;;;6.70;2.30;;;;;;;26.27;39.44;101469.75;5053609;28;20155;-49
2022/08/21 06:38:08;;;;;;;5.20;1.85;;;;;;;26.28;39.43;101470.66;5053847;28;20108;-52
2022/08/21 06:40:37;;;;;;;8.15;2.40;;;;;;;26.26;39.37;101470.63;5052437;28;20100;-50
2022/08/21 06:43:12;;;;;;;9.50;2.38;;;;;;;26.27;39.67;101466.25;5053338;28;20530;-51
2022/08/21 06:45:39;;;;;;;;;;;;;;;26.34;39.70;101457.56;5053647;28;20063;-52
2022/08/21 06:48:08;;;;;;;8.00;2.38;;;;;;;26.32;39.50;101457.56;5053326;28;19913;-51
2022/08/21 06:50:36;;;;;;;7.78;2.10;;;;;;;26.34;39.47;101454.94;5052929;28;20107;-49
2022/08/21 06:53:07;;;;;;;9.82;2.40;;;;;;;26.37;39.61;101450.59;5053516;28;20052;-58
2022/08/21 06:55:36;;;;;;;6.05;1.80;;;;;;;26.31;39.48;101441.78;5052381;28;20041;-52
2022/08/21 06:58:05;;;;;;;5.88;1.98;;;;;;;26.30;39.59;101447.91;5053121;28;20029;-52
2022/08/21 07:00:35;;;;;;;7.63;2.05;;;;;;;26.32;39.44;101460.19;5053265;28;20082;-50
2022/08/21 07:03:08;;;;;;;6.78;2.30;;;;;;;26.30;39.58;101458.41;5053062;28;20068;-50
2022/08/21 07:05:36;;;;;;;11.40;3.05;;;;;;;26.32;39.82;101454.03;5053150;28;20025;-51
2022/08/21 07:08:05;;;;;;;8.93;2.25;;;;;;;26.35;39.67;101454.97;5053174;28;20029;-48
2022/08/21 07:10:33;;;;;;;6.88;2.20;;;;;;;26.37;39.63;101455.88;5052754;28;20102;-52
2022/08/21 07:13:02;;;;;;;8.30;2.45;;;;;;;26.36;39.69;101458.47;5052942;28;20395;-50
2022/08/21 07:15:31;;;;;;;7.93;2.53;;;;;;;26.36;39.90;101464.63;5052544;28;20037;-49
2022/08/21 07:18:00;;;;;;;6.13;2.17;;;;;;;26.37;39.71;101470.75;5052874;28;20055;-49
2022/08/21 07:20:30;;;;;;;10.43;2.10;;;;;;;26.37;39.80;101476.00;5053080;28;20057;-48
2022/08/21 07:23:03;;;;;;;8.02;2.55;;;;;;;26.38;39.79;101476.03;5052740;28;20091;-50
2022/08/21 07:25:31;;;;;;;6.88;2.65;;;;;;;26.32;39.70;101464.53;5052808;28;20464;-51
2022/08/21 07:28:00;;;;;;;12.80;2.42;;;;;;;26.28;39.98;101463.63;5052897;28;20124;-53
2022/08/21 07:30:28;;;;;;;7.40;2.28;;;;;;;26.33;40.07;101466.31;5052711;28;20103;-54
2022/08/21 07:32:57;;;;;;;13.52;2.53;;;;;;;26.34;40.14;101470.72;5052737;28;20048;-50
2022/08/21 07:35:27;;;;;;;7.47;2.42;;;;;;;26.29;39.87;101454.03;5052441;28;20025;-54
2022/08/21 07:37:56;;;;;;;6.30;1.80;;;;;;;26.36;39.91;101467.25;5051321;28;20028;-52
2022/08/21 07:40:24;;;;;;;8.63;2.63;;;;;;;26.35;39.93;101461.94;5052556;28;20040;-52
2022/08/21 07:42:55;;;;;;;11.75;3.20;;;;;;;26.37;39.72;101468.13;5052502;28;20494;-52
2022/08/21 07:45:24;;;;;;;5.47;2.17;;;;;;;26.36;39.86;101461.09;5052623;28;20366;-48
2022/08/21 07:47:53;;;;;;;11.60;2.80;;;;;;;26.36;39.71;101461.09;5034647;28;20384;-51
2022/08/21 07:50:22;;;;;;;8.98;2.28;;;;;;;26.39;39.96;101464.63;5052331;28;20106;-49
2022/08/21 07:52:50;;;;;;;7.78;1.98;;;;;;;26.33;39.82;101455.78;5052271;28;20036;-48
2022/08/21 07:55:21;;;;;;;8.25;2.72;;;;;;;26.28;40.29;101450.50;5052240;28;20399;-48
2022/08/21 07:57:50;;;;;;;7.70;2.45;;;;;;;26.29;40.50;101449.63;5052561;28;20122;-49
2022/08/21 08:00:22;;;;;;;9.20;2.50;;;;;;;26.29;40.65;101449.63;5052026;28;20123;-47
2022/08/21 08:02:51;;;;;;;9.38;2.35;;;;;;;26.34;40.58;101452.28;5052499;28;20804;-50
2022/08/21 08:05:28;;;;;;;7.95;2.10;;;;;;;26.28;40.71;101452.25;5052561;28;20061;-48
2022/08/21 08:07:57;;;;;;;6.72;2.15;;;;;;;26.29;40.92;101440.88;5056011;28;20032;-48
2022/08/21 08:10:26;;;;;;;6.28;1.80;;;;;;;26.17;40.73;101426.69;5056501;28;20028;-50
2022/08/21 08:12:54;;;;;;;9.27;2.92;;;;;;;26.21;40.83;101436.41;5056221;28;20487;-47
2022/08/21 08:15:25;;;;;;;9.43;2.10;;;;;;;26.20;41.06;101428.50;5056151;28;20025;-50
2022/08/21 08:17:54;;;;;;;6.55;2.13;;;;;;;26.29;40.89;101425.94;5038695;28;20104;-48
2022/08/21 08:20:23;;;;;;;11.85;2.40;;;;;;;26.19;41.45;101422.34;5056397;28;20029;-49
2022/08/21 08:22:52;;;;;;;7.25;2.28;;;;;;;26.26;41.28;101418.03;5056479;28;20021;-48
2022/08/21 08:25:21;;;;;;;8.77;2.10;;;;;;;26.27;41.23;101421.56;5056367;28;20032;-47
2022/08/21 08:27:50;;;;;;;8.45;2.63;;;;;;;26.24;41.63;101415.41;5055952;28;20109;-48
2022/08/21 08:30:20;;;;;;;8.18;2.65;;;;;;;26.21;41.88;101410.09;5055968;28;20025;-47
2022/08/21 08:32:49;;;;;;;9.85;2.83;;;;;;;26.19;42.29;101416.22;5056135;28;20032;-48
2022/08/21 08:35:18;;;;;;;8.48;2.80;;;;;;;26.01;42.70;101414.22;5055048;28;20116;-50
2022/08/21 08:37:46;;;;;;;7.95;1.88;;;;;;;25.96;42.72;101422.06;5056412;28;20021;-48
2022/08/21 08:40:36;;;;;;;9.52;2.03;;;;;;;25.99;42.46;101432.59;5056060;28;20494;-48
2022/08/21 08:43:05;;;;;;;6.95;1.95;;;;;;;26.03;42.53;101444.03;5046595;28;20040;-50
2022/08/21 08:45:37;;;;;;;8.32;2.53;;;;;;;26.09;41.98;101449.38;5038051;28;20029;-48
2022/08/21 08:48:10;;;;;;;7.22;1.90;;;;;;;26.12;41.89;101459.97;5038268;28;20374;-49
2022/08/21 08:50:47;;;;;;;7.50;1.90;;;;;;;26.14;41.91;101450.34;5055654;28;20017;-49
2022/08/21 08:53:20;;;;;;;8.52;1.90;;;;;;;26.26;41.87;101449.59;5063220;28;20032;-50
2022/08/21 08:55:49;;;;;;;9.57;2.03;;;;;;;26.16;42.14;101453.84;5033016;28;20037;-52
2022/08/21 08:58:24;;;;;;;10.25;2.28;;;;;;;26.25;41.74;101453.06;5024603;28;20030;-50
2022/08/21 09:00:54;;;;;;;8.00;2.65;;;;;;;26.21;42.27;101439.03;5024876;28;20022;-50
2022/08/21 09:03:24;;;;;;;8.95;2.60;;;;;;;26.30;41.79;101424.22;5029868;28;20053;-51
2022/08/21 09:06:04;;;;;;;10.80;2.53;;;;;;;26.40;41.91;101431.31;5023133;28;20025;-50
2022/08/21 09:09:11;;;;;;;5.13;1.98;;;;;;;26.33;42.53;101425.13;5024626;28;20033;-51
2022/08/21 09:11:49;;;;;;;5.78;2.00;;;;;;;26.42;42.19;101426.97;5016243;28;20030;-49
2022/08/21 09:14:34;;;;;;;6.80;2.08;;;;;;;26.41;42.53;101427.84;5022420;28;20104;-47
2022/08/21 09:17:12;;;;;;;6.53;1.95;;;;;;;26.42;42.66;101418.19;5022905;28;20025;-49
2022/08/21 09:20:03;;;;;;;6.03;1.77;;;;;;;26.44;42.83;101412.09;5025271;28;20461;-48
2022/08/21 09:22:51;;;;;;;7.20;2.00;;;;;;;26.50;42.89;101416.53;5021208;28;20030;-48
2022/08/21 09:25:22;;;;;;;5.72;2.10;;;;;;;26.52;43.43;101427.94;5014469;28;20125;-47
2022/08/21 09:27:50;;;;;;;5.70;1.77;;;;;;;26.48;43.14;101432.28;5021991;28;20068;-49
2022/08/21 09:30:19;;;;;;;4.45;1.50;;;;;;;26.49;43.71;101431.41;5022611;28;20025;-47
2022/08/21 09:32:48;;;;;;;3.75;1.70;;;;;;;26.52;43.48;101441.09;5026083;28;20508;-50
2022/08/21 09:35:19;;;;;;;8.40;2.33;;;;;;;26.54;43.69;101450.75;5025450;28;20079;-49
2022/08/21 09:37:59;;;;;;;8.73;2.20;;;;;;;26.58;43.28;101450.78;5022855;28;20034;-48
2022/08/21 09:40:30;;;;;;;5.68;1.98;;;;;;;26.55;43.65;101446.41;5022452;28;20028;-50
2022/08/21 09:43:01;;;;;;;8.60;2.25;;;;;;;26.61;43.42;101449.06;5029982;28;20160;-53
2022/08/21 09:45:29;;;;;;;8.35;2.13;;;;;;;26.54;43.28;101445.50;5023302;28;20082;-49
2022/08/21 09:48:08;;;;;;;5.47;1.60;;;;;;;26.51;43.62;101450.72;5022396;28;20029;-48
2022/08/21 09:50:35;;;;;;;5.82;1.75;;;;;;;26.57;43.44;101455.16;5024354;28;20036;-51
2022/08/21 09:53:03;;;;;;;7.28;2.05;;;;;;;26.57;43.36;101444.63;5025273;28;20022;-52
2022/08/21 09:58:33;;;;;;;6.68;1.85;;;;;;;26.60;43.03;101459.59;5020927;28;20116;-51
2022/08/21 10:01:02;;;;;;;5.82;1.70;;;;;;;26.62;43.12;101448.19;5022132;28;20035;-50
2022/08/21 10:03:29;;;;;;;10.88;1.77;;;;;;;26.57;43.13;101422.72;5021734;28;20037;-53
2022/08/21 10:06:05;;;;;;;6.95;2.42;;;;;;;26.65;43.09;101442.06;5020563;28;20025;-51
2022/08/21 10:08:33;;;;;;;3.97;1.65;;;;;;;26.66;42.93;101451.72;5025302;28;20114;-53
2022/08/21 10:11:13;;;;;;;5.00;1.73;;;;;;;26.67;42.74;101446.50;5025110;28;20508;-48
2022/08/21 10:13:41;;;;;;;7.50;1.98;;;;;;;26.81;42.25;101445.78;5021297;28;20026;-50
2022/08/21 10:16:31;;;;;;;7.20;1.80;;;;;;;26.79;42.31;101448.41;5024632;28;20388;-51
2022/08/21 10:19:37;;;;;;;4.30;1.20;;;;;;;26.79;42.21;101431.69;5021735;28;20099;-51
2022/08/21 10:22:11;;;;;;;6.25;2.10;;;;;;;26.84;42.03;101438.78;5016216;28;20032;-51
2022/08/21 10:24:55;;;;;;;4.70;1.90;;;;;;;26.86;41.91;101433.53;5020337;28;20334;-52
2022/08/21 10:27:41;;;;;;;4.97;1.60;;;;;;;26.93;42.24;101439.72;5023932;28;20026;-50
2022/08/21 10:30:10;;;;;;;4.70;1.60;;;;;;;26.92;42.20;101436.19;5017975;28;20048;-48
2022/08/21 10:32:37;;;;;;;6.80;1.60;;;;;;;26.88;42.66;101438.81;5020201;28;20044;-52
2022/08/21 10:35:15;;;;;;;5.05;1.77;;;;;;;26.87;42.68;101435.31;5021826;28;20030;-47
2022/08/21 10:38:02;;;;;;;3.83;1.60;;;;;;;26.97;42.23;101438.91;5020600;28;20033;-48
2022/08/21 10:40:37;;;;;;;3.92;1.65;;;;;;;26.86;42.78;101433.53;5016558;28;20038;-52
2022/08/21 10:43:04;;;;;;;;;;;;;;;26.98;42.65;101443.25;5018778;28;20046;-49
2022/08/21 10:46:01;;;;;;;4.88;1.60;;;;;;;27.03;42.48;101448.59;5024557;28;19913;-52
2022/08/21 10:48:38;;;;;;;3.38;1.42;;;;;;;27.03;42.10;101446.81;5018599;28;20049;-50
2022/08/21 10:51:14;;;;;;;3.70;1.65;;;;;;;27.01;42.16;101443.28;5024806;28;20086;-48
2022/08/21 10:53:48;;;;;;;4.53;1.55;;;;;;;26.99;41.97;101434.50;5022283;28;20048;-49
2022/08/21 10:56:24;;;;;;;4.67;1.33;;;;;;;26.98;42.00;101440.63;5020495;28;20485;-48
2022/08/21 10:59:12;;;;;;;3.65;1.20;;;;;;;27.05;41.94;101446.84;5022624;28;20049;-51
2022/08/21 11:01:40;;;;;;;2.45;1.10;;;;;;;27.08;41.72;101444.22;5020396;28;20033;-52
2022/08/21 11:04:31;;;;;;;4.75;1.67;;;;;;;27.06;41.73;101449.47;5018862;28;20116;-51
2022/08/21 11:07:06;;;;;;;2.80;1.30;;;;;;;27.07;41.45;101445.09;5018466;28;20132;-48
2022/08/21 11:09:33;;;;;;;;;;;;;;;27.13;41.39;101434.59;5022696;28;20041;-52
2022/08/21 11:12:13;;;;;;;3.53;1.20;;;;;;;27.17;41.62;101435.50;5020190;28;19975;-48
2022/08/21 11:14:52;;;;;;;6.43;1.30;;;;;;;27.04;41.68;101417.00;5018665;28;20025;-49
2022/08/21 11:17:25;;;;;;;3.63;1.58;;;;;;;27.12;41.53;101431.09;5023654;28;20113;-52
2022/08/21 11:20:01;;;;;;;3.78;1.48;;;;;;;27.17;41.37;101427.59;5021644;28;20026;-49
2022/08/21 11:22:47;;;;;;;2.97;1.40;;;;;;;27.18;41.46;101432.00;5012466;28;20443;-54
2022/08/21 11:25:30;;;;;;;2.53;0.90;;;;;;;27.17;41.69;101422.34;5020119;28;20103;-52
2022/08/21 11:28:05;;;;;;;3.33;1.20;;;;;;;27.22;41.75;101418.00;5021436;28;20058;-49
2022/08/21 11:30:34;;;;;;;;;;;;;;;27.27;41.47;101426.81;5022691;28;20508;-50
2022/08/21 11:33:25;;;;;;;7.70;1.38;;;;;;;27.26;41.73;101415.38;5021959;28;19917;-48
2022/08/21 11:36:03;;;;;;;4.72;1.20;;;;;;;27.25;41.33;101412.75;5022249;28;20036;-51
2022/08/21 11:38:43;;;;;;;3.75;1.10;;;;;;;27.31;41.12;101420.66;5021879;28;20477;-52
2022/08/21 11:41:37;;;;;;;4.25;1.02;;;;;;;27.30;41.31;101411.03;5020625;28;20032;-49
2022/08/21 11:44:17;;;;;;;3.53;1.25;;;;;;;27.37;40.95;101417.22;5020111;28;20030;-52
2022/08/21 11:46:52;;;;;;;2.47;1.05;;;;;;;27.30;40.96;101414.53;5021815;28;20033;-50
2022/08/21 11:49:58;;;;;;;4.97;1.40;;;;;;;27.32;41.48;101406.63;5023348;28;20638;-49